sensor_id;sensor_type;location;lat;lon;timestamp;P1;durP1;ratioP1;P2;durP2;ratioP2
37851;SDS011;23691;52.486;4.650;2023-01-08T00:02:22;22.95;;;3.05;;
37851;SDS011;23691;52.486;4.650;2023-01-08T00:04:47;22.13;;;2.85;;
37851;SDS011;23691;52.486;4.650;2023-01-08T00:07:13;16.98;;;2.67;;
37851;SDS011;23691;52.486;4.650;2023-01-08T00:09:38;22.00;;;3.33;;
37851;SDS011;23691;52.486;4.650;2023-01-08T00:12:03;19.77;;;3.15;;
37851;SDS011;23691;52.486;4.650;2023-01-08T00:14:29;19.50;;;2.88;;
37851;SDS011;23691;52.486;4.650;2023-01-08T00:16:55;28.08;;;3.47;;
37851;SDS011;23691;52.486;4.650;2023-01-08T00:19:20;19.02;;;2.65;;
37851;SDS011;23691;52.486;4.650;2023-01-08T00:21:45;23.10;;;3.22;;
37851;SDS011;23691;52.486;4.650;2023-01-08T00:24:11;24.40;;;3.00;;
37851;SDS011;23691;52.486;4.650;2023-01-08T00:26:36;23.27;;;3.05;;
37851;SDS011;23691;52.486;4.650;2023-01-08T00:29:01;24.67;;;3.88;;
37851;SDS011;23691;52.486;4.650;2023-01-08T00:31:27;25.42;;;3.63;;
37851;SDS011;23691;52.486;4.650;2023-01-08T00:33:52;28.75;;;3.67;;
37851;SDS011;23691;52.486;4.650;2023-01-08T00:36:18;24.92;;;3.65;;
37851;SDS011;23691;52.486;4.650;2023-01-08T00:38:44;28.33;;;4.10;;
37851;SDS011;23691;52.486;4.650;2023-01-08T00:41:11;23.63;;;3.42;;
37851;SDS011;23691;52.486;4.650;2023-01-08T00:43:38;24.60;;;3.50;;
37851;SDS011;23691;52.486;4.650;2023-01-08T00:46:04;24.98;;;3.33;;
37851;SDS011;23691;52.486;4.650;2023-01-08T00:48:30;29.00;;;4.38;;
37851;SDS011;23691;52.486;4.650;2023-01-08T00:50:57;27.07;;;4.10;;
37851;SDS011;23691;52.486;4.650;2023-01-08T00:53:25;23.83;;;3.20;;
37851;SDS011;23691;52.486;4.650;2023-01-08T00:55:57;27.65;;;3.63;;
37851;SDS011;23691;52.486;4.650;2023-01-08T00:58:24;28.35;;;4.15;;
37851;SDS011;23691;52.486;4.650;2023-01-08T01:00:49;30.25;;;4.40;;
37851;SDS011;23691;52.486;4.650;2023-01-08T01:03:14;20.73;;;2.90;;
37851;SDS011;23691;52.486;4.650;2023-01-08T01:05:40;25.50;;;3.55;;
37851;SDS011;23691;52.486;4.650;2023-01-08T01:08:08;22.45;;;3.38;;
37851;SDS011;23691;52.486;4.650;2023-01-08T01:10:33;21.85;;;3.88;;
37851;SDS011;23691;52.486;4.650;2023-01-08T01:13:00;25.15;;;3.30;;
37851;SDS011;23691;52.486;4.650;2023-01-08T01:15:25;17.27;;;3.20;;
37851;SDS011;23691;52.486;4.650;2023-01-08T01:17:50;23.25;;;3.45;;
37851;SDS011;23691;52.486;4.650;2023-01-08T01:20:16;26.83;;;3.33;;
37851;SDS011;23691;52.486;4.650;2023-01-08T01:22:44;24.17;;;3.67;;
37851;SDS011;23691;52.486;4.650;2023-01-08T01:25:09;28.40;;;3.38;;
37851;SDS011;23691;52.486;4.650;2023-01-08T01:27:35;22.85;;;3.17;;
37851;SDS011;23691;52.486;4.650;2023-01-08T01:30:01;24.13;;;3.30;;
37851;SDS011;23691;52.486;4.650;2023-01-08T01:32:27;25.80;;;3.25;;
37851;SDS011;23691;52.486;4.650;2023-01-08T01:34:55;23.52;;;3.47;;
37851;SDS011;23691;52.486;4.650;2023-01-08T01:37:29;21.27;;;2.97;;
37851;SDS011;23691;52.486;4.650;2023-01-08T01:39:54;24.77;;;2.92;;
37851;SDS011;23691;52.486;4.650;2023-01-08T01:42:20;19.45;;;2.80;;
37851;SDS011;23691;52.486;4.650;2023-01-08T01:45:15;20.30;;;2.85;;
37851;SDS011;23691;52.486;4.650;2023-01-08T01:47:58;21.60;;;2.90;;
37851;SDS011;23691;52.486;4.650;2023-01-08T01:55:27;21.77;;;2.70;;
37851;SDS011;23691;52.486;4.650;2023-01-08T01:58:00;22.42;;;3.15;;
37851;SDS011;23691;52.486;4.650;2023-01-08T02:00:30;22.13;;;2.83;;
37851;SDS011;23691;52.486;4.650;2023-01-08T02:02:57;17.58;;;3.03;;
37851;SDS011;23691;52.486;4.650;2023-01-08T02:05:22;21.05;;;2.67;;
37851;SDS011;23691;52.486;4.650;2023-01-08T02:07:57;18.25;;;2.75;;
37851;SDS011;23691;52.486;4.650;2023-01-08T02:10:32;22.88;;;3.20;;
37851;SDS011;23691;52.486;4.650;2023-01-08T02:13:04;18.70;;;2.67;;
37851;SDS011;23691;52.486;4.650;2023-01-08T02:15:48;15.98;;;2.42;;
37851;SDS011;23691;52.486;4.650;2023-01-08T02:27:15;13.95;;;2.30;;
37851;SDS011;23691;52.486;4.650;2023-01-08T02:29:42;15.77;;;2.88;;
37851;SDS011;23691;52.486;4.650;2023-01-08T02:32:08;16.25;;;2.35;;
37851;SDS011;23691;52.486;4.650;2023-01-08T02:34:34;15.65;;;2.17;;
37851;SDS011;23691;52.486;4.650;2023-01-08T02:36:59;15.70;;;2.20;;
37851;SDS011;23691;52.486;4.650;2023-01-08T02:42:05;16.95;;;2.40;;
37851;SDS011;23691;52.486;4.650;2023-01-08T02:47:15;15.88;;;2.60;;
37851;SDS011;23691;52.486;4.650;2023-01-08T02:50:03;15.80;;;2.40;;
37851;SDS011;23691;52.486;4.650;2023-01-08T02:55:28;11.82;;;2.10;;
37851;SDS011;23691;52.486;4.650;2023-01-08T02:57:57;21.27;;;2.58;;
37851;SDS011;23691;52.486;4.650;2023-01-08T03:00:23;16.05;;;2.42;;
37851;SDS011;23691;52.486;4.650;2023-01-08T03:02:50;13.43;;;2.20;;
37851;SDS011;23691;52.486;4.650;2023-01-08T03:05:25;11.18;;;2.13;;
37851;SDS011;23691;52.486;4.650;2023-01-08T03:07:52;12.73;;;2.17;;
37851;SDS011;23691;52.486;4.650;2023-01-08T03:10:20;17.58;;;2.60;;
37851;SDS011;23691;52.486;4.650;2023-01-08T03:12:50;17.10;;;2.63;;
37851;SDS011;23691;52.486;4.650;2023-01-08T03:15:29;14.20;;;2.78;;
37851;SDS011;23691;52.486;4.650;2023-01-08T03:17:59;14.27;;;2.28;;
37851;SDS011;23691;52.486;4.650;2023-01-08T03:20:30;12.50;;;2.75;;
37851;SDS011;23691;52.486;4.650;2023-01-08T03:22:59;15.13;;;2.63;;
37851;SDS011;23691;52.486;4.650;2023-01-08T03:25:28;15.70;;;2.90;;
37851;SDS011;23691;52.486;4.650;2023-01-08T03:27:56;11.00;;;2.80;;
37851;SDS011;23691;52.486;4.650;2023-01-08T03:30:27;15.00;;;2.72;;
37851;SDS011;23691;52.486;4.650;2023-01-08T03:32:55;14.80;;;2.80;;
37851;SDS011;23691;52.486;4.650;2023-01-08T03:35:22;18.50;;;2.75;;
37851;SDS011;23691;52.486;4.650;2023-01-08T03:37:53;11.70;;;2.40;;
37851;SDS011;23691;52.486;4.650;2023-01-08T03:40:39;16.25;;;3.03;;
37851;SDS011;23691;52.486;4.650;2023-01-08T03:43:10;12.23;;;2.65;;
37851;SDS011;23691;52.486;4.650;2023-01-08T03:45:36;11.90;;;2.60;;
37851;SDS011;23691;52.486;4.650;2023-01-08T03:48:03;11.85;;;2.70;;
37851;SDS011;23691;52.486;4.650;2023-01-08T03:50:30;14.20;;;2.70;;
37851;SDS011;23691;52.486;4.650;2023-01-08T03:52:56;12.18;;;2.67;;
37851;SDS011;23691;52.486;4.650;2023-01-08T03:55:22;13.25;;;2.60;;
37851;SDS011;23691;52.486;4.650;2023-01-08T03:57:47;15.13;;;2.78;;
37851;SDS011;23691;52.486;4.650;2023-01-08T04:00:13;10.88;;;2.45;;
37851;SDS011;23691;52.486;4.650;2023-01-08T04:02:39;14.32;;;2.53;;
37851;SDS011;23691;52.486;4.650;2023-01-08T04:05:06;13.77;;;2.42;;
37851;SDS011;23691;52.486;4.650;2023-01-08T04:07:35;12.32;;;2.63;;
37851;SDS011;23691;52.486;4.650;2023-01-08T04:10:04;13.77;;;2.35;;
37851;SDS011;23691;52.486;4.650;2023-01-08T04:12:29;11.93;;;2.13;;
37851;SDS011;23691;52.486;4.650;2023-01-08T04:14:55;13.57;;;2.63;;
37851;SDS011;23691;52.486;4.650;2023-01-08T04:17:20;13.25;;;2.30;;
37851;SDS011;23691;52.486;4.650;2023-01-08T04:19:46;14.95;;;2.97;;
37851;SDS011;23691;52.486;4.650;2023-01-08T04:22:11;14.75;;;2.25;;
37851;SDS011;23691;52.486;4.650;2023-01-08T04:24:36;12.13;;;2.25;;
37851;SDS011;23691;52.486;4.650;2023-01-08T04:27:02;12.95;;;2.20;;
37851;SDS011;23691;52.486;4.650;2023-01-08T04:29:27;15.02;;;2.30;;
37851;SDS011;23691;52.486;4.650;2023-01-08T04:31:53;16.08;;;2.22;;
37851;SDS011;23691;52.486;4.650;2023-01-08T04:34:18;15.63;;;2.08;;
37851;SDS011;23691;52.486;4.650;2023-01-08T04:36:46;18.23;;;2.20;;
37851;SDS011;23691;52.486;4.650;2023-01-08T04:41:37;16.43;;;2.17;;
37851;SDS011;23691;52.486;4.650;2023-01-08T04:44:02;20.88;;;2.03;;
37851;SDS011;23691;52.486;4.650;2023-01-08T04:46:28;14.98;;;1.83;;
37851;SDS011;23691;52.486;4.650;2023-01-08T04:48:53;18.33;;;2.08;;
37851;SDS011;23691;52.486;4.650;2023-01-08T04:51:19;15.65;;;2.40;;
37851;SDS011;23691;52.486;4.650;2023-01-08T04:53:45;20.33;;;2.38;;
37851;SDS011;23691;52.486;4.650;2023-01-08T04:56:11;16.00;;;2.13;;
37851;SDS011;23691;52.486;4.650;2023-01-08T04:58:37;21.40;;;2.65;;
37851;SDS011;23691;52.486;4.650;2023-01-08T05:01:39;19.30;;;2.40;;
37851;SDS011;23691;52.486;4.650;2023-01-08T05:03:59;18.23;;;2.20;;
37851;SDS011;23691;52.486;4.650;2023-01-08T05:06:29;16.30;;;2.15;;
37851;SDS011;23691;52.486;4.650;2023-01-08T05:08:55;14.35;;;2.05;;
37851;SDS011;23691;52.486;4.650;2023-01-08T05:11:22;17.65;;;2.55;;
37851;SDS011;23691;52.486;4.650;2023-01-08T05:13:47;19.10;;;2.25;;
37851;SDS011;23691;52.486;4.650;2023-01-08T05:16:13;21.88;;;3.15;;
37851;SDS011;23691;52.486;4.650;2023-01-08T05:18:39;17.88;;;2.38;;
37851;SDS011;23691;52.486;4.650;2023-01-08T05:21:04;12.80;;;1.88;;
37851;SDS011;23691;52.486;4.650;2023-01-08T05:23:30;18.15;;;2.30;;
37851;SDS011;23691;52.486;4.650;2023-01-08T05:25:57;13.98;;;2.13;;
37851;SDS011;23691;52.486;4.650;2023-01-08T05:28:23;18.00;;;2.67;;
37851;SDS011;23691;52.486;4.650;2023-01-08T05:30:49;18.17;;;2.22;;
37851;SDS011;23691;52.486;4.650;2023-01-08T05:33:14;15.27;;;2.05;;
37851;SDS011;23691;52.486;4.650;2023-01-08T05:35:40;21.50;;;2.10;;
37851;SDS011;23691;52.486;4.650;2023-01-08T05:38:05;19.52;;;2.47;;
37851;SDS011;23691;52.486;4.650;2023-01-08T05:40:31;15.18;;;2.20;;
37851;SDS011;23691;52.486;4.650;2023-01-08T05:43:00;20.77;;;2.67;;
37851;SDS011;23691;52.486;4.650;2023-01-08T05:45:26;15.52;;;2.00;;
37851;SDS011;23691;52.486;4.650;2023-01-08T05:47:51;14.85;;;2.38;;
37851;SDS011;23691;52.486;4.650;2023-01-08T05:50:17;17.88;;;2.28;;
37851;SDS011;23691;52.486;4.650;2023-01-08T05:52:43;16.88;;;1.77;;
37851;SDS011;23691;52.486;4.650;2023-01-08T05:55:08;16.83;;;2.63;;
37851;SDS011;23691;52.486;4.650;2023-01-08T05:57:34;14.43;;;2.05;;
37851;SDS011;23691;52.486;4.650;2023-01-08T05:59:59;21.25;;;2.30;;
37851;SDS011;23691;52.486;4.650;2023-01-08T06:02:24;13.38;;;1.90;;
37851;SDS011;23691;52.486;4.650;2023-01-08T06:04:50;17.00;;;1.83;;
37851;SDS011;23691;52.486;4.650;2023-01-08T06:07:15;19.45;;;2.40;;
37851;SDS011;23691;52.486;4.650;2023-01-08T06:09:40;13.95;;;2.28;;
37851;SDS011;23691;52.486;4.650;2023-01-08T06:12:06;12.73;;;1.95;;
37851;SDS011;23691;52.486;4.650;2023-01-08T06:14:31;22.05;;;2.47;;
37851;SDS011;23691;52.486;4.650;2023-01-08T06:16:56;15.18;;;2.30;;
37851;SDS011;23691;52.486;4.650;2023-01-08T06:19:22;13.98;;;2.25;;
37851;SDS011;23691;52.486;4.650;2023-01-08T06:21:47;12.18;;;1.70;;
37851;SDS011;23691;52.486;4.650;2023-01-08T06:24:13;15.75;;;2.03;;
37851;SDS011;23691;52.486;4.650;2023-01-08T06:26:38;16.20;;;2.35;;
37851;SDS011;23691;52.486;4.650;2023-01-08T06:29:03;13.90;;;2.40;;
37851;SDS011;23691;52.486;4.650;2023-01-08T06:31:29;15.95;;;2.67;;
37851;SDS011;23691;52.486;4.650;2023-01-08T06:33:54;15.00;;;1.98;;
37851;SDS011;23691;52.486;4.650;2023-01-08T06:36:19;15.73;;;2.30;;
37851;SDS011;23691;52.486;4.650;2023-01-08T06:38:45;14.50;;;2.67;;
37851;SDS011;23691;52.486;4.650;2023-01-08T06:41:10;17.02;;;2.30;;
37851;SDS011;23691;52.486;4.650;2023-01-08T06:43:36;18.02;;;2.50;;
37851;SDS011;23691;52.486;4.650;2023-01-08T06:46:05;20.73;;;2.70;;
37851;SDS011;23691;52.486;4.650;2023-01-08T06:48:32;16.92;;;2.35;;
37851;SDS011;23691;52.486;4.650;2023-01-08T06:50:58;13.00;;;2.15;;
37851;SDS011;23691;52.486;4.650;2023-01-08T06:53:24;18.65;;;2.50;;
37851;SDS011;23691;52.486;4.650;2023-01-08T06:55:50;16.58;;;2.22;;
37851;SDS011;23691;52.486;4.650;2023-01-08T06:58:20;16.60;;;2.55;;
37851;SDS011;23691;52.486;4.650;2023-01-08T07:00:50;20.55;;;2.28;;
37851;SDS011;23691;52.486;4.650;2023-01-08T07:03:15;20.50;;;2.50;;
37851;SDS011;23691;52.486;4.650;2023-01-08T07:05:41;13.68;;;2.50;;
37851;SDS011;23691;52.486;4.650;2023-01-08T07:08:09;21.20;;;2.60;;
37851;SDS011;23691;52.486;4.650;2023-01-08T07:10:35;21.77;;;3.22;;
37851;SDS011;23691;52.486;4.650;2023-01-08T07:13:01;15.00;;;2.92;;
37851;SDS011;23691;52.486;4.650;2023-01-08T07:15:26;18.27;;;2.85;;
37851;SDS011;23691;52.486;4.650;2023-01-08T07:17:51;20.17;;;3.22;;
37851;SDS011;23691;52.486;4.650;2023-01-08T07:20:17;15.02;;;2.38;;
37851;SDS011;23691;52.486;4.650;2023-01-08T07:22:42;12.68;;;2.78;;
37851;SDS011;23691;52.486;4.650;2023-01-08T07:25:07;13.35;;;2.00;;
37851;SDS011;23691;52.486;4.650;2023-01-08T07:27:33;17.17;;;2.45;;
37851;SDS011;23691;52.486;4.650;2023-01-08T07:29:58;19.40;;;2.90;;
37851;SDS011;23691;52.486;4.650;2023-01-08T07:32:24;18.73;;;2.70;;
37851;SDS011;23691;52.486;4.650;2023-01-08T07:34:49;13.35;;;2.10;;
37851;SDS011;23691;52.486;4.650;2023-01-08T07:37:14;18.48;;;2.53;;
37851;SDS011;23691;52.486;4.650;2023-01-08T07:39:40;19.08;;;2.65;;
37851;SDS011;23691;52.486;4.650;2023-01-08T07:42:05;16.52;;;2.20;;
37851;SDS011;23691;52.486;4.650;2023-01-08T07:44:30;16.17;;;2.50;;
37851;SDS011;23691;52.486;4.650;2023-01-08T07:46:56;14.13;;;2.40;;
37851;SDS011;23691;52.486;4.650;2023-01-08T07:49:21;13.45;;;2.30;;
37851;SDS011;23691;52.486;4.650;2023-01-08T07:51:49;16.45;;;2.47;;
37851;SDS011;23691;52.486;4.650;2023-01-08T07:54:14;20.92;;;2.83;;
37851;SDS011;23691;52.486;4.650;2023-01-08T07:56:40;15.07;;;2.45;;
37851;SDS011;23691;52.486;4.650;2023-01-08T07:59:05;18.20;;;3.15;;
37851;SDS011;23691;52.486;4.650;2023-01-08T08:01:30;15.85;;;2.33;;
37851;SDS011;23691;52.486;4.650;2023-01-08T08:03:56;16.00;;;2.42;;
37851;SDS011;23691;52.486;4.650;2023-01-08T08:06:21;18.10;;;2.53;;
37851;SDS011;23691;52.486;4.650;2023-01-08T08:08:46;19.88;;;3.15;;
37851;SDS011;23691;52.486;4.650;2023-01-08T08:11:12;17.58;;;2.97;;
37851;SDS011;23691;52.486;4.650;2023-01-08T08:13:37;17.15;;;2.90;;
37851;SDS011;23691;52.486;4.650;2023-01-08T08:16:06;18.27;;;2.75;;
37851;SDS011;23691;52.486;4.650;2023-01-08T08:18:32;21.85;;;2.85;;
37851;SDS011;23691;52.486;4.650;2023-01-08T08:20:57;18.85;;;2.80;;
37851;SDS011;23691;52.486;4.650;2023-01-08T08:23:23;14.52;;;2.40;;
37851;SDS011;23691;52.486;4.650;2023-01-08T08:25:49;17.85;;;2.20;;
37851;SDS011;23691;52.486;4.650;2023-01-08T08:28:15;19.13;;;2.80;;
37851;SDS011;23691;52.486;4.650;2023-01-08T08:30:41;18.20;;;2.80;;
37851;SDS011;23691;52.486;4.650;2023-01-08T08:33:07;16.17;;;2.58;;
37851;SDS011;23691;52.486;4.650;2023-01-08T08:35:32;23.40;;;2.80;;
37851;SDS011;23691;52.486;4.650;2023-01-08T08:37:58;14.95;;;2.38;;
37851;SDS011;23691;52.486;4.650;2023-01-08T08:40:24;18.15;;;2.72;;
37851;SDS011;23691;52.486;4.650;2023-01-08T08:42:57;19.20;;;2.60;;
37851;SDS011;23691;52.486;4.650;2023-01-08T08:45:24;14.15;;;2.20;;
37851;SDS011;23691;52.486;4.650;2023-01-08T08:47:50;15.32;;;2.38;;
37851;SDS011;23691;52.486;4.650;2023-01-08T08:50:15;17.38;;;2.58;;
37851;SDS011;23691;52.486;4.650;2023-01-08T08:52:41;15.65;;;2.55;;
37851;SDS011;23691;52.486;4.650;2023-01-08T08:55:08;14.63;;;2.30;;
37851;SDS011;23691;52.486;4.650;2023-01-08T09:00:02;17.75;;;2.70;;
37851;SDS011;23691;52.486;4.650;2023-01-08T09:02:28;17.50;;;2.35;;
37851;SDS011;23691;52.486;4.650;2023-01-08T09:04:53;17.58;;;2.50;;
37851;SDS011;23691;52.486;4.650;2023-01-08T09:07:19;16.35;;;2.45;;
37851;SDS011;23691;52.486;4.650;2023-01-08T09:09:44;18.02;;;2.60;;
37851;SDS011;23691;52.486;4.650;2023-01-08T09:12:09;20.13;;;2.95;;
37851;SDS011;23691;52.486;4.650;2023-01-08T09:14:35;14.07;;;2.50;;
37851;SDS011;23691;52.486;4.650;2023-01-08T09:17:00;17.58;;;2.60;;
37851;SDS011;23691;52.486;4.650;2023-01-08T09:19:25;18.50;;;2.92;;
37851;SDS011;23691;52.486;4.650;2023-01-08T09:21:51;19.75;;;2.80;;
37851;SDS011;23691;52.486;4.650;2023-01-08T09:24:16;17.42;;;2.50;;
37851;SDS011;23691;52.486;4.650;2023-01-08T09:26:41;13.70;;;2.50;;
37851;SDS011;23691;52.486;4.650;2023-01-08T09:29:07;14.50;;;2.40;;
37851;SDS011;23691;52.486;4.650;2023-01-08T09:31:32;15.63;;;2.67;;
37851;SDS011;23691;52.486;4.650;2023-01-08T09:33:58;19.25;;;2.65;;
37851;SDS011;23691;52.486;4.650;2023-01-08T09:36:24;19.02;;;2.58;;
37851;SDS011;23691;52.486;4.650;2023-01-08T09:38:49;15.75;;;2.85;;
37851;SDS011;23691;52.486;4.650;2023-01-08T09:43:53;17.65;;;2.35;;
37851;SDS011;23691;52.486;4.650;2023-01-08T09:46:20;19.10;;;2.85;;
37851;SDS011;23691;52.486;4.650;2023-01-08T09:48:48;20.55;;;3.00;;
37851;SDS011;23691;52.486;4.650;2023-01-08T09:51:16;19.48;;;2.50;;
37851;SDS011;23691;52.486;4.650;2023-01-08T09:53:43;16.08;;;2.60;;
37851;SDS011;23691;52.486;4.650;2023-01-08T09:56:13;17.35;;;2.22;;
37851;SDS011;23691;52.486;4.650;2023-01-08T09:58:44;18.33;;;2.30;;
37851;SDS011;23691;52.486;4.650;2023-01-08T10:01:21;14.07;;;2.40;;
37851;SDS011;23691;52.486;4.650;2023-01-08T10:03:51;12.80;;;2.20;;
37851;SDS011;23691;52.486;4.650;2023-01-08T10:06:22;14.57;;;2.30;;
37851;SDS011;23691;52.486;4.650;2023-01-08T10:08:49;13.60;;;2.45;;
37851;SDS011;23691;52.486;4.650;2023-01-08T10:11:15;13.13;;;2.28;;
37851;SDS011;23691;52.486;4.650;2023-01-08T10:14:02;18.65;;;2.95;;
37851;SDS011;23691;52.486;4.650;2023-01-08T10:16:32;17.27;;;2.38;;
37851;SDS011;23691;52.486;4.650;2023-01-08T10:19:02;17.98;;;2.47;;
37851;SDS011;23691;52.486;4.650;2023-01-08T10:21:35;16.90;;;2.75;;
37851;SDS011;23691;52.486;4.650;2023-01-08T10:24:03;19.70;;;2.70;;
37851;SDS011;23691;52.486;4.650;2023-01-08T10:26:30;16.33;;;2.60;;
37851;SDS011;23691;52.486;4.650;2023-01-08T10:31:37;16.23;;;2.20;;
37851;SDS011;23691;52.486;4.650;2023-01-08T10:34:11;16.30;;;2.35;;
37851;SDS011;23691;52.486;4.650;2023-01-08T10:36:47;16.58;;;2.78;;
37851;SDS011;23691;52.486;4.650;2023-01-08T10:39:16;15.68;;;2.33;;
37851;SDS011;23691;52.486;4.650;2023-01-08T10:41:47;13.00;;;2.10;;
37851;SDS011;23691;52.486;4.650;2023-01-08T10:44:17;16.38;;;2.50;;
37851;SDS011;23691;52.486;4.650;2023-01-08T10:46:45;17.52;;;2.97;;
37851;SDS011;23691;52.486;4.650;2023-01-08T10:49:15;17.85;;;2.53;;
37851;SDS011;23691;52.486;4.650;2023-01-08T10:51:51;15.10;;;2.40;;
37851;SDS011;23691;52.486;4.650;2023-01-08T10:57:22;14.18;;;2.10;;
37851;SDS011;23691;52.486;4.650;2023-01-08T10:59:53;17.33;;;2.42;;
37851;SDS011;23691;52.486;4.650;2023-01-08T11:02:26;17.35;;;2.90;;
37851;SDS011;23691;52.486;4.650;2023-01-08T11:04:53;13.20;;;2.45;;
37851;SDS011;23691;52.486;4.650;2023-01-08T11:07:19;15.82;;;2.55;;
37851;SDS011;23691;52.486;4.650;2023-01-08T11:15:01;19.60;;;2.20;;
37851;SDS011;23691;52.486;4.650;2023-01-08T11:17:28;18.48;;;2.53;;
37851;SDS011;23691;52.486;4.650;2023-01-08T11:19:54;14.18;;;2.30;;
37851;SDS011;23691;52.486;4.650;2023-01-08T11:22:37;15.73;;;2.55;;
37851;SDS011;23691;52.486;4.650;2023-01-08T11:25:02;17.45;;;2.90;;
37851;SDS011;23691;52.486;4.650;2023-01-08T11:27:36;15.90;;;3.15;;
37851;SDS011;23691;52.486;4.650;2023-01-08T11:40:32;15.77;;;2.22;;
37851;SDS011;23691;52.486;4.650;2023-01-08T11:43:10;14.55;;;2.35;;
37851;SDS011;23691;52.486;4.650;2023-01-08T11:45:45;12.13;;;2.17;;
37851;SDS011;23691;52.486;4.650;2023-01-08T11:57:04;13.05;;;2.22;;
37851;SDS011;23691;52.486;4.650;2023-01-08T12:02:53;10.88;;;2.10;;
37851;SDS011;23691;52.486;4.650;2023-01-08T12:08:01;12.90;;;2.20;;
37851;SDS011;23691;52.486;4.650;2023-01-08T12:10:49;12.63;;;2.00;;
37851;SDS011;23691;52.486;4.650;2023-01-08T12:13:34;11.40;;;1.80;;
37851;SDS011;23691;52.486;4.650;2023-01-08T12:18:59;12.43;;;2.00;;
37851;SDS011;23691;52.486;4.650;2023-01-08T12:27:04;13.30;;;2.65;;
37851;SDS011;23691;52.486;4.650;2023-01-08T12:32:42;14.88;;;2.38;;
37851;SDS011;23691;52.486;4.650;2023-01-08T12:35:14;11.77;;;1.80;;
37851;SDS011;23691;52.486;4.650;2023-01-08T12:37:56;12.25;;;2.13;;
37851;SDS011;23691;52.486;4.650;2023-01-08T12:40:32;11.55;;;1.95;;
37851;SDS011;23691;52.486;4.650;2023-01-08T12:43:05;8.25;;;1.60;;
37851;SDS011;23691;52.486;4.650;2023-01-08T12:45:42;11.45;;;2.22;;
37851;SDS011;23691;52.486;4.650;2023-01-08T12:48:13;11.85;;;2.00;;
37851;SDS011;23691;52.486;4.650;2023-01-08T12:56:30;12.35;;;2.30;;
37851;SDS011;23691;52.486;4.650;2023-01-08T12:59:04;10.77;;;2.00;;
37851;SDS011;23691;52.486;4.650;2023-01-08T13:01:56;13.27;;;2.13;;
37851;SDS011;23691;52.486;4.650;2023-01-08T13:04:37;14.57;;;2.00;;
37851;SDS011;23691;52.486;4.650;2023-01-08T13:07:24;11.35;;;2.22;;
37851;SDS011;23691;52.486;4.650;2023-01-08T13:09:55;10.45;;;2.05;;
37851;SDS011;23691;52.486;4.650;2023-01-08T13:12:42;12.65;;;1.90;;
37851;SDS011;23691;52.486;4.650;2023-01-08T13:15:16;9.82;;;1.90;;
37851;SDS011;23691;52.486;4.650;2023-01-08T13:17:49;11.48;;;1.90;;
37851;SDS011;23691;52.486;4.650;2023-01-08T13:20:22;10.45;;;1.80;;
37851;SDS011;23691;52.486;4.650;2023-01-08T13:22:51;8.07;;;1.58;;
37851;SDS011;23691;52.486;4.650;2023-01-08T13:25:25;10.88;;;1.67;;
37851;SDS011;23691;52.486;4.650;2023-01-08T13:27:53;10.85;;;2.08;;
37851;SDS011;23691;52.486;4.650;2023-01-08T13:33:02;10.88;;;1.83;;
37851;SDS011;23691;52.486;4.650;2023-01-08T13:35:47;13.40;;;1.48;;
37851;SDS011;23691;52.486;4.650;2023-01-08T13:38:13;13.63;;;1.75;;
37851;SDS011;23691;52.486;4.650;2023-01-08T13:45:39;9.40;;;1.73;;
37851;SDS011;23691;52.486;4.650;2023-01-08T13:48:18;12.07;;;1.70;;
37851;SDS011;23691;52.486;4.650;2023-01-08T13:50:45;11.30;;;1.90;;
37851;SDS011;23691;52.486;4.650;2023-01-08T13:53:13;12.07;;;1.83;;
37851;SDS011;23691;52.486;4.650;2023-01-08T13:55:40;11.05;;;1.80;;
37851;SDS011;23691;52.486;4.650;2023-01-08T13:58:14;12.48;;;1.90;;
37851;SDS011;23691;52.486;4.650;2023-01-08T14:03:21;12.13;;;1.70;;
37851;SDS011;23691;52.486;4.650;2023-01-08T14:08:31;11.82;;;1.92;;
37851;SDS011;23691;52.486;4.650;2023-01-08T14:10:57;10.73;;;1.70;;
37851;SDS011;23691;52.486;4.650;2023-01-08T14:13:25;10.68;;;2.10;;
37851;SDS011;23691;52.486;4.650;2023-01-08T14:15:54;12.57;;;1.95;;
37851;SDS011;23691;52.486;4.650;2023-01-08T14:18:23;10.98;;;1.80;;
37851;SDS011;23691;52.486;4.650;2023-01-08T14:20:48;12.00;;;1.92;;
37851;SDS011;23691;52.486;4.650;2023-01-08T14:23:37;11.80;;;2.15;;
37851;SDS011;23691;52.486;4.650;2023-01-08T14:26:16;11.05;;;2.00;;
37851;SDS011;23691;52.486;4.650;2023-01-08T14:28:49;15.40;;;2.17;;
37851;SDS011;23691;52.486;4.650;2023-01-08T14:31:18;12.55;;;2.40;;
37851;SDS011;23691;52.486;4.650;2023-01-08T14:33:46;11.63;;;2.10;;
37851;SDS011;23691;52.486;4.650;2023-01-08T14:36:12;11.55;;;2.15;;
37851;SDS011;23691;52.486;4.650;2023-01-08T14:38:38;13.50;;;1.90;;
37851;SDS011;23691;52.486;4.650;2023-01-08T14:41:05;13.93;;;2.05;;
37851;SDS011;23691;52.486;4.650;2023-01-08T14:43:37;11.70;;;2.28;;
37851;SDS011;23691;52.486;4.650;2023-01-08T14:46:09;10.25;;;2.20;;
37851;SDS011;23691;52.486;4.650;2023-01-08T14:48:51;12.55;;;1.98;;
37851;SDS011;23691;52.486;4.650;2023-01-08T14:51:21;13.80;;;2.10;;
37851;SDS011;23691;52.486;4.650;2023-01-08T14:53:53;11.95;;;2.00;;
37851;SDS011;23691;52.486;4.650;2023-01-08T14:56:25;10.73;;;1.88;;
37851;SDS011;23691;52.486;4.650;2023-01-08T14:58:54;10.93;;;1.80;;
37851;SDS011;23691;52.486;4.650;2023-01-08T15:01:22;11.02;;;2.10;;
37851;SDS011;23691;52.486;4.650;2023-01-08T15:03:50;9.98;;;2.15;;
37851;SDS011;23691;52.486;4.650;2023-01-08T15:06:24;10.25;;;1.90;;
37851;SDS011;23691;52.486;4.650;2023-01-08T15:08:51;10.80;;;2.20;;
37851;SDS011;23691;52.486;4.650;2023-01-08T15:13:43;10.27;;;2.23;;
37851;SDS011;23691;52.486;4.650;2023-01-08T15:16:11;11.80;;;2.55;;
37851;SDS011;23691;52.486;4.650;2023-01-08T15:18:47;12.70;;;2.95;;
37851;SDS011;23691;52.486;4.650;2023-01-08T15:21:20;11.15;;;2.20;;
37851;SDS011;23691;52.486;4.650;2023-01-08T15:23:49;14.57;;;2.70;;
37851;SDS011;23691;52.486;4.650;2023-01-08T15:26:18;12.18;;;2.58;;
37851;SDS011;23691;52.486;4.650;2023-01-08T15:28:56;11.75;;;2.70;;
37851;SDS011;23691;52.486;4.650;2023-01-08T15:31:27;11.82;;;2.60;;
37851;SDS011;23691;52.486;4.650;2023-01-08T15:34:08;12.50;;;2.88;;
37851;SDS011;23691;52.486;4.650;2023-01-08T15:36:34;11.20;;;2.60;;
37851;SDS011;23691;52.486;4.650;2023-01-08T15:38:59;11.75;;;2.85;;
37851;SDS011;23691;52.486;4.650;2023-01-08T15:41:24;11.70;;;2.70;;
37851;SDS011;23691;52.486;4.650;2023-01-08T15:44:08;15.70;;;2.80;;
37851;SDS011;23691;52.486;4.650;2023-01-08T15:46:39;13.02;;;2.58;;
37851;SDS011;23691;52.486;4.650;2023-01-08T15:49:04;14.13;;;2.95;;
37851;SDS011;23691;52.486;4.650;2023-01-08T15:51:30;12.20;;;2.58;;
37851;SDS011;23691;52.486;4.650;2023-01-08T15:53:57;14.82;;;2.70;;
37851;SDS011;23691;52.486;4.650;2023-01-08T15:56:23;15.68;;;3.15;;
37851;SDS011;23691;52.486;4.650;2023-01-08T15:58:49;13.80;;;3.13;;
37851;SDS011;23691;52.486;4.650;2023-01-08T16:01:14;15.75;;;4.00;;
37851;SDS011;23691;52.486;4.650;2023-01-08T16:03:39;16.45;;;4.07;;
37851;SDS011;23691;52.486;4.650;2023-01-08T16:06:05;13.80;;;3.25;;
37851;SDS011;23691;52.486;4.650;2023-01-08T16:08:31;16.23;;;3.60;;
37851;SDS011;23691;52.486;4.650;2023-01-08T16:10:57;10.73;;;2.95;;
37851;SDS011;23691;52.486;4.650;2023-01-08T16:13:22;14.13;;;3.38;;
37851;SDS011;23691;52.486;4.650;2023-01-08T16:15:47;15.52;;;2.83;;
37851;SDS011;23691;52.486;4.650;2023-01-08T16:18:13;13.23;;;2.92;;
37851;SDS011;23691;52.486;4.650;2023-01-08T16:20:38;14.15;;;2.92;;
37851;SDS011;23691;52.486;4.650;2023-01-08T16:23:04;13.30;;;3.03;;